sensor_id;sensor_type;location;lat;lon;timestamp;P1;durP1;ratioP1;P2;durP2;ratioP2
8337;SDS011;4206;48.634;9.516;2022-10-31T00:00:39;7.77;;;4.43;;
8337;SDS011;4206;48.634;9.516;2022-10-31T00:03:05;8.00;;;3.87;;
8337;SDS011;4206;48.634;9.516;2022-10-31T00:05:31;7.20;;;3.73;;
8337;SDS011;4206;48.634;9.516;2022-10-31T00:07:56;13.27;;;4.10;;
8337;SDS011;4206;48.634;9.516;2022-10-31T00:10:22;7.40;;;3.70;;
8337;SDS011;4206;48.634;9.516;2022-10-31T00:12:47;8.67;;;3.50;;
8337;SDS011;4206;48.634;9.516;2022-10-31T00:15:13;5.20;;;3.40;;
8337;SDS011;4206;48.634;9.516;2022-10-31T00:17:39;5.37;;;3.40;;
8337;SDS011;4206;48.634;9.516;2022-10-31T00:20:05;16.77;;;3.80;;
8337;SDS011;4206;48.634;9.516;2022-10-31T00:22:31;8.87;;;3.60;;
8337;SDS011;4206;48.634;9.516;2022-10-31T00:24:56;6.50;;;3.43;;
8337;SDS011;4206;48.634;9.516;2022-10-31T00:27:23;5.00;;;3.03;;
8337;SDS011;4206;48.634;9.516;2022-10-31T00:29:48;7.90;;;3.53;;
8337;SDS011;4206;48.634;9.516;2022-10-31T00:32:14;7.23;;;2.90;;
8337;SDS011;4206;48.634;9.516;2022-10-31T00:34:40;5.97;;;3.40;;
8337;SDS011;4206;48.634;9.516;2022-10-31T00:37:05;6.90;;;3.43;;
8337;SDS011;4206;48.634;9.516;2022-10-31T00:39:31;8.97;;;4.10;;
8337;SDS011;4206;48.634;9.516;2022-10-31T00:41:57;7.37;;;3.40;;
8337;SDS011;4206;48.634;9.516;2022-10-31T00:44:23;11.63;;;3.60;;
8337;SDS011;4206;48.634;9.516;2022-10-31T00:46:49;6.23;;;3.83;;
8337;SDS011;4206;48.634;9.516;2022-10-31T00:49:14;7.70;;;3.03;;
8337;SDS011;4206;48.634;9.516;2022-10-31T00:51:40;6.10;;;3.57;;
8337;SDS011;4206;48.634;9.516;2022-10-31T00:54:06;5.80;;;3.77;;
8337;SDS011;4206;48.634;9.516;2022-10-31T00:56:31;9.23;;;4.37;;
8337;SDS011;4206;48.634;9.516;2022-10-31T00:58:57;7.60;;;3.40;;
8337;SDS011;4206;48.634;9.516;2022-10-31T01:01:22;11.30;;;4.17;;
8337;SDS011;4206;48.634;9.516;2022-10-31T01:03:48;9.57;;;4.20;;
8337;SDS011;4206;48.634;9.516;2022-10-31T01:06:14;8.57;;;3.60;;
8337;SDS011;4206;48.634;9.516;2022-10-31T01:08:40;6.53;;;3.50;;
8337;SDS011;4206;48.634;9.516;2022-10-31T01:11:10;5.03;;;3.40;;
8337;SDS011;4206;48.634;9.516;2022-10-31T01:13:38;8.30;;;4.07;;
8337;SDS011;4206;48.634;9.516;2022-10-31T01:16:04;10.83;;;4.30;;
8337;SDS011;4206;48.634;9.516;2022-10-31T01:18:31;6.60;;;4.03;;
8337;SDS011;4206;48.634;9.516;2022-10-31T01:20:58;6.80;;;4.00;;
8337;SDS011;4206;48.634;9.516;2022-10-31T01:23:26;6.40;;;3.40;;
8337;SDS011;4206;48.634;9.516;2022-10-31T01:28:44;12.10;;;4.03;;
8337;SDS011;4206;48.634;9.516;2022-10-31T01:31:12;6.00;;;3.60;;
8337;SDS011;4206;48.634;9.516;2022-10-31T01:33:38;6.90;;;3.40;;
8337;SDS011;4206;48.634;9.516;2022-10-31T01:36:10;9.67;;;3.73;;
8337;SDS011;4206;48.634;9.516;2022-10-31T01:38:38;6.10;;;3.30;;
8337;SDS011;4206;48.634;9.516;2022-10-31T01:41:04;5.10;;;2.73;;
8337;SDS011;4206;48.634;9.516;2022-10-31T01:46:12;9.30;;;3.47;;
8337;SDS011;4206;48.634;9.516;2022-10-31T01:48:39;12.10;;;3.37;;
8337;SDS011;4206;48.634;9.516;2022-10-31T01:51:06;9.37;;;3.43;;
8337;SDS011;4206;48.634;9.516;2022-10-31T01:53:33;6.50;;;2.77;;
8337;SDS011;4206;48.634;9.516;2022-10-31T01:56:01;8.20;;;3.57;;
8337;SDS011;4206;48.634;9.516;2022-10-31T01:58:28;6.73;;;3.40;;
8337;SDS011;4206;48.634;9.516;2022-10-31T02:00:58;11.60;;;3.70;;
8337;SDS011;4206;48.634;9.516;2022-10-31T02:03:44;8.70;;;4.60;;
8337;SDS011;4206;48.634;9.516;2022-10-31T02:06:14;6.10;;;3.50;;
8337;SDS011;4206;48.634;9.516;2022-10-31T02:08:53;5.63;;;3.67;;
8337;SDS011;4206;48.634;9.516;2022-10-31T02:11:22;9.63;;;3.90;;
8337;SDS011;4206;48.634;9.516;2022-10-31T02:13:48;9.90;;;3.50;;
8337;SDS011;4206;48.634;9.516;2022-10-31T02:16:15;6.53;;;3.87;;
8337;SDS011;4206;48.634;9.516;2022-10-31T02:18:40;5.70;;;3.20;;
8337;SDS011;4206;48.634;9.516;2022-10-31T02:21:11;7.33;;;3.93;;
8337;SDS011;4206;48.634;9.516;2022-10-31T02:31:38;5.00;;;2.97;;
8337;SDS011;4206;48.634;9.516;2022-10-31T02:44:44;9.40;;;3.50;;
8337;SDS011;4206;48.634;9.516;2022-10-31T02:47:22;10.73;;;3.37;;
8337;SDS011;4206;48.634;9.516;2022-10-31T02:52:28;6.77;;;3.50;;
8337;SDS011;4206;48.634;9.516;2022-10-31T02:54:56;10.90;;;3.97;;
8337;SDS011;4206;48.634;9.516;2022-10-31T02:57:23;8.40;;;3.33;;
8337;SDS011;4206;48.634;9.516;2022-10-31T02:59:53;9.80;;;3.40;;
8337;SDS011;4206;48.634;9.516;2022-10-31T03:04:52;5.50;;;2.90;;
8337;SDS011;4206;48.634;9.516;2022-10-31T03:10:03;8.13;;;3.17;;
8337;SDS011;4206;48.634;9.516;2022-10-31T03:15:23;3.40;;;2.70;;
8337;SDS011;4206;48.634;9.516;2022-10-31T03:20:44;6.17;;;3.40;;
8337;SDS011;4206;48.634;9.516;2022-10-31T03:23:15;5.10;;;3.07;;
8337;SDS011;4206;48.634;9.516;2022-10-31T03:25:44;8.70;;;4.47;;
8337;SDS011;4206;48.634;9.516;2022-10-31T03:28:12;8.17;;;4.43;;
8337;SDS011;4206;48.634;9.516;2022-10-31T03:30:41;6.70;;;3.80;;
8337;SDS011;4206;48.634;9.516;2022-10-31T03:33:10;5.20;;;3.63;;
8337;SDS011;4206;48.634;9.516;2022-10-31T03:35:41;5.73;;;3.47;;
8337;SDS011;4206;48.634;9.516;2022-10-31T03:38:10;6.80;;;3.23;;
8337;SDS011;4206;48.634;9.516;2022-10-31T03:40:38;5.70;;;2.73;;
8337;SDS011;4206;48.634;9.516;2022-10-31T03:43:10;7.83;;;3.37;;
8337;SDS011;4206;48.634;9.516;2022-10-31T03:45:41;5.47;;;2.60;;
8337;SDS011;4206;48.634;9.516;2022-10-31T03:48:10;8.00;;;3.03;;
8337;SDS011;4206;48.634;9.516;2022-10-31T03:50:38;5.60;;;2.90;;
8337;SDS011;4206;48.634;9.516;2022-10-31T03:53:13;5.60;;;3.20;;
8337;SDS011;4206;48.634;9.516;2022-10-31T03:55:48;6.63;;;2.87;;
8337;SDS011;4206;48.634;9.516;2022-10-31T03:58:26;4.73;;;2.73;;
8337;SDS011;4206;48.634;9.516;2022-10-31T04:00:57;5.87;;;2.80;;
8337;SDS011;4206;48.634;9.516;2022-10-31T04:03:28;9.00;;;2.20;;
8337;SDS011;4206;48.634;9.516;2022-10-31T04:05:58;7.83;;;2.73;;
8337;SDS011;4206;48.634;9.516;2022-10-31T04:08:28;5.47;;;2.70;;
8337;SDS011;4206;48.634;9.516;2022-10-31T04:10:56;5.83;;;3.50;;
8337;SDS011;4206;48.634;9.516;2022-10-31T04:13:26;5.43;;;3.23;;
8337;SDS011;4206;48.634;9.516;2022-10-31T04:15:54;7.70;;;3.20;;
8337;SDS011;4206;48.634;9.516;2022-10-31T04:18:21;9.47;;;3.63;;
8337;SDS011;4206;48.634;9.516;2022-10-31T04:20:48;7.50;;;3.10;;
8337;SDS011;4206;48.634;9.516;2022-10-31T04:23:17;8.03;;;2.87;;
8337;SDS011;4206;48.634;9.516;2022-10-31T04:25:47;7.03;;;2.77;;
8337;SDS011;4206;48.634;9.516;2022-10-31T04:28:12;7.30;;;2.80;;
8337;SDS011;4206;48.634;9.516;2022-10-31T04:30:38;8.40;;;3.70;;
8337;SDS011;4206;48.634;9.516;2022-10-31T04:33:03;7.07;;;3.30;;
8337;SDS011;4206;48.634;9.516;2022-10-31T04:35:29;6.87;;;3.70;;
8337;SDS011;4206;48.634;9.516;2022-10-31T04:37:55;6.63;;;3.97;;
8337;SDS011;4206;48.634;9.516;2022-10-31T04:40:20;8.87;;;3.60;;
8337;SDS011;4206;48.634;9.516;2022-10-31T04:42:46;7.37;;;3.37;;
8337;SDS011;4206;48.634;9.516;2022-10-31T04:45:11;7.60;;;3.50;;
8337;SDS011;4206;48.634;9.516;2022-10-31T04:47:37;9.17;;;3.40;;
8337;SDS011;4206;48.634;9.516;2022-10-31T04:50:03;8.30;;;3.10;;
8337;SDS011;4206;48.634;9.516;2022-10-31T04:52:28;6.50;;;2.97;;
8337;SDS011;4206;48.634;9.516;2022-10-31T04:54:54;5.33;;;3.07;;
8337;SDS011;4206;48.634;9.516;2022-10-31T04:57:20;14.13;;;3.03;;
8337;SDS011;4206;48.634;9.516;2022-10-31T04:59:45;6.80;;;2.80;;
8337;SDS011;4206;48.634;9.516;2022-10-31T05:02:11;7.70;;;2.90;;
8337;SDS011;4206;48.634;9.516;2022-10-31T05:04:36;5.00;;;2.80;;
8337;SDS011;4206;48.634;9.516;2022-10-31T05:07:02;7.50;;;3.20;;
8337;SDS011;4206;48.634;9.516;2022-10-31T05:09:28;15.43;;;3.90;;
8337;SDS011;4206;48.634;9.516;2022-10-31T05:11:53;6.77;;;2.60;;
8337;SDS011;4206;48.634;9.516;2022-10-31T05:14:19;8.30;;;3.60;;
8337;SDS011;4206;48.634;9.516;2022-10-31T05:16:44;5.70;;;3.07;;
8337;SDS011;4206;48.634;9.516;2022-10-31T05:19:10;10.90;;;2.70;;
8337;SDS011;4206;48.634;9.516;2022-10-31T05:21:36;5.57;;;2.73;;
8337;SDS011;4206;48.634;9.516;2022-10-31T05:24:01;8.47;;;3.23;;
8337;SDS011;4206;48.634;9.516;2022-10-31T05:26:27;4.53;;;2.47;;
8337;SDS011;4206;48.634;9.516;2022-10-31T05:28:53;7.47;;;3.33;;
8337;SDS011;4206;48.634;9.516;2022-10-31T05:31:18;5.13;;;3.00;;
8337;SDS011;4206;48.634;9.516;2022-10-31T05:33:44;8.10;;;3.57;;
8337;SDS011;4206;48.634;9.516;2022-10-31T05:36:09;6.17;;;3.03;;
8337;SDS011;4206;48.634;9.516;2022-10-31T05:38:35;5.67;;;3.87;;
8337;SDS011;4206;48.634;9.516;2022-10-31T05:41:01;4.90;;;3.13;;
8337;SDS011;4206;48.634;9.516;2022-10-31T05:43:27;6.90;;;3.10;;
8337;SDS011;4206;48.634;9.516;2022-10-31T05:45:53;7.93;;;3.60;;
8337;SDS011;4206;48.634;9.516;2022-10-31T05:48:19;7.70;;;3.43;;
8337;SDS011;4206;48.634;9.516;2022-10-31T05:50:46;5.30;;;3.40;;
8337;SDS011;4206;48.634;9.516;2022-10-31T05:53:13;9.30;;;3.30;;
8337;SDS011;4206;48.634;9.516;2022-10-31T05:55:38;11.40;;;4.23;;
8337;SDS011;4206;48.634;9.516;2022-10-31T05:58:05;10.10;;;5.20;;
8337;SDS011;4206;48.634;9.516;2022-10-31T06:00:31;13.50;;;6.50;;
8337;SDS011;4206;48.634;9.516;2022-10-31T06:03:00;5.23;;;4.10;;
8337;SDS011;4206;48.634;9.516;2022-10-31T06:05:27;8.43;;;4.20;;
8337;SDS011;4206;48.634;9.516;2022-10-31T06:07:54;4.37;;;3.00;;
8337;SDS011;4206;48.634;9.516;2022-10-31T06:10:20;6.27;;;3.40;;
8337;SDS011;4206;48.634;9.516;2022-10-31T06:12:46;6.27;;;3.40;;
8337;SDS011;4206;48.634;9.516;2022-10-31T06:15:12;8.43;;;4.37;;
8337;SDS011;4206;48.634;9.516;2022-10-31T06:17:38;11.53;;;4.20;;
8337;SDS011;4206;48.634;9.516;2022-10-31T06:20:04;8.93;;;4.30;;
8337;SDS011;4206;48.634;9.516;2022-10-31T06:22:31;5.87;;;3.60;;
8337;SDS011;4206;48.634;9.516;2022-10-31T06:24:56;6.13;;;3.40;;
8337;SDS011;4206;48.634;9.516;2022-10-31T06:27:22;6.57;;;3.20;;
8337;SDS011;4206;48.634;9.516;2022-10-31T06:29:49;9.10;;;3.83;;
8337;SDS011;4206;48.634;9.516;2022-10-31T06:32:14;5.97;;;3.80;;
8337;SDS011;4206;48.634;9.516;2022-10-31T06:34:40;9.47;;;5.07;;
8337;SDS011;4206;48.634;9.516;2022-10-31T06:37:07;22.03;;;8.17;;
8337;SDS011;4206;48.634;9.516;2022-10-31T06:39:33;14.77;;;8.17;;
8337;SDS011;4206;48.634;9.516;2022-10-31T06:41:59;12.33;;;6.80;;
8337;SDS011;4206;48.634;9.516;2022-10-31T06:44:25;8.70;;;4.53;;
8337;SDS011;4206;48.634;9.516;2022-10-31T06:46:51;13.90;;;5.10;;
8337;SDS011;4206;48.634;9.516;2022-10-31T06:49:16;8.40;;;5.47;;
8337;SDS011;4206;48.634;9.516;2022-10-31T06:51:42;11.50;;;5.43;;
8337;SDS011;4206;48.634;9.516;2022-10-31T06:54:07;8.53;;;5.17;;
8337;SDS011;4206;48.634;9.516;2022-10-31T06:56:33;9.40;;;5.50;;
8337;SDS011;4206;48.634;9.516;2022-10-31T06:58:59;12.00;;;4.70;;
8337;SDS011;4206;48.634;9.516;2022-10-31T07:01:24;13.53;;;5.70;;
8337;SDS011;4206;48.634;9.516;2022-10-31T07:03:50;12.97;;;5.93;;
8337;SDS011;4206;48.634;9.516;2022-10-31T07:06:15;8.60;;;5.70;;
8337;SDS011;4206;48.634;9.516;2022-10-31T07:08:41;8.37;;;4.57;;
8337;SDS011;4206;48.634;9.516;2022-10-31T07:11:06;7.53;;;4.47;;
8337;SDS011;4206;48.634;9.516;2022-10-31T07:13:32;7.13;;;4.10;;
8337;SDS011;4206;48.634;9.516;2022-10-31T07:16:00;7.80;;;4.17;;
8337;SDS011;4206;48.634;9.516;2022-10-31T07:18:27;11.23;;;3.53;;
8337;SDS011;4206;48.634;9.516;2022-10-31T07:20:54;10.97;;;3.07;;
8337;SDS011;4206;48.634;9.516;2022-10-31T07:23:20;10.10;;;3.37;;
8337;SDS011;4206;48.634;9.516;2022-10-31T07:25:46;6.03;;;3.27;;
8337;SDS011;4206;48.634;9.516;2022-10-31T07:28:11;5.23;;;3.20;;
8337;SDS011;4206;48.634;9.516;2022-10-31T07:30:37;7.67;;;3.40;;
8337;SDS011;4206;48.634;9.516;2022-10-31T07:33:03;5.80;;;3.10;;
8337;SDS011;4206;48.634;9.516;2022-10-31T07:35:29;5.90;;;3.07;;
8337;SDS011;4206;48.634;9.516;2022-10-31T07:37:56;11.80;;;4.20;;
8337;SDS011;4206;48.634;9.516;2022-10-31T07:40:22;16.70;;;6.13;;
8337;SDS011;4206;48.634;9.516;2022-10-31T07:42:49;14.43;;;5.60;;
8337;SDS011;4206;48.634;9.516;2022-10-31T07:45:17;15.20;;;7.63;;
8337;SDS011;4206;48.634;9.516;2022-10-31T07:47:48;16.10;;;8.67;;
8337;SDS011;4206;48.634;9.516;2022-10-31T07:50:17;9.27;;;5.00;;
8337;SDS011;4206;48.634;9.516;2022-10-31T07:52:44;14.73;;;5.20;;
8337;SDS011;4206;48.634;9.516;2022-10-31T07:55:10;6.07;;;3.80;;
8337;SDS011;4206;48.634;9.516;2022-10-31T07:57:36;7.47;;;2.90;;
8337;SDS011;4206;48.634;9.516;2022-10-31T08:00:03;4.80;;;2.73;;
8337;SDS011;4206;48.634;9.516;2022-10-31T08:02:30;6.67;;;3.47;;
8337;SDS011;4206;48.634;9.516;2022-10-31T08:04:55;12.13;;;4.00;;
8337;SDS011;4206;48.634;9.516;2022-10-31T08:07:21;7.90;;;3.70;;
8337;SDS011;4206;48.634;9.516;2022-10-31T08:09:47;5.93;;;3.70;;
8337;SDS011;4206;48.634;9.516;2022-10-31T08:12:12;4.47;;;3.27;;
8337;SDS011;4206;48.634;9.516;2022-10-31T08:14:38;5.43;;;3.97;;
8337;SDS011;4206;48.634;9.516;2022-10-31T08:17:04;7.10;;;3.40;;
8337;SDS011;4206;48.634;9.516;2022-10-31T08:19:29;9.73;;;4.03;;
8337;SDS011;4206;48.634;9.516;2022-10-31T08:21:55;9.27;;;4.63;;
8337;SDS011;4206;48.634;9.516;2022-10-31T08:24:21;6.77;;;4.60;;
8337;SDS011;4206;48.634;9.516;2022-10-31T08:26:47;9.83;;;4.20;;
8337;SDS011;4206;48.634;9.516;2022-10-31T08:29:13;8.00;;;4.43;;
8337;SDS011;4206;48.634;9.516;2022-10-31T08:31:39;8.17;;;3.20;;
8337;SDS011;4206;48.634;9.516;2022-10-31T08:34:05;6.30;;;4.00;;
8337;SDS011;4206;48.634;9.516;2022-10-31T08:36:30;5.60;;;3.30;;
8337;SDS011;4206;48.634;9.516;2022-10-31T08:38:56;13.10;;;4.30;;
8337;SDS011;4206;48.634;9.516;2022-10-31T08:41:22;9.07;;;3.93;;
8337;SDS011;4206;48.634;9.516;2022-10-31T08:43:47;6.33;;;3.73;;
8337;SDS011;4206;48.634;9.516;2022-10-31T08:46:13;7.80;;;4.33;;
8337;SDS011;4206;48.634;9.516;2022-10-31T08:48:39;12.40;;;5.10;;
8337;SDS011;4206;48.634;9.516;2022-10-31T08:51:05;13.03;;;6.03;;
8337;SDS011;4206;48.634;9.516;2022-10-31T08:53:31;15.50;;;4.47;;
8337;SDS011;4206;48.634;9.516;2022-10-31T08:55:57;7.30;;;3.60;;
8337;SDS011;4206;48.634;9.516;2022-10-31T08:58:23;9.07;;;4.70;;
8337;SDS011;4206;48.634;9.516;2022-10-31T09:00:50;7.30;;;3.57;;
8337;SDS011;4206;48.634;9.516;2022-10-31T09:03:21;8.60;;;4.20;;
8337;SDS011;4206;48.634;9.516;2022-10-31T09:05:49;8.30;;;4.77;;
8337;SDS011;4206;48.634;9.516;2022-10-31T09:08:19;5.63;;;3.97;;
8337;SDS011;4206;48.634;9.516;2022-10-31T09:10:44;7.17;;;4.00;;
8337;SDS011;4206;48.634;9.516;2022-10-31T09:13:12;10.53;;;4.13;;
8337;SDS011;4206;48.634;9.516;2022-10-31T09:15:40;15.10;;;4.00;;
8337;SDS011;4206;48.634;9.516;2022-10-31T09:18:07;6.87;;;3.70;;
8337;SDS011;4206;48.634;9.516;2022-10-31T09:20:34;11.50;;;4.70;;
8337;SDS011;4206;48.634;9.516;2022-10-31T09:23:01;8.90;;;4.40;;
8337;SDS011;4206;48.634;9.516;2022-10-31T09:25:29;8.97;;;4.33;;
8337;SDS011;4206;48.634;9.516;2022-10-31T09:27:55;10.23;;;5.10;;
8337;SDS011;4206;48.634;9.516;2022-10-31T09:30:22;7.00;;;3.30;;
8337;SDS011;4206;48.634;9.516;2022-10-31T09:32:48;9.30;;;4.07;;
8337;SDS011;4206;48.634;9.516;2022-10-31T09:35:19;7.70;;;3.70;;
8337;SDS011;4206;48.634;9.516;2022-10-31T09:37:44;7.97;;;3.50;;
8337;SDS011;4206;48.634;9.516;2022-10-31T09:40:10;16.07;;;3.70;;
8337;SDS011;4206;48.634;9.516;2022-10-31T09:48:07;8.53;;;4.10;;
8337;SDS011;4206;48.634;9.516;2022-10-31T09:50:46;6.90;;;3.87;;
8337;SDS011;4206;48.634;9.516;2022-10-31T09:56:07;12.53;;;4.00;;
8337;SDS011;4206;48.634;9.516;2022-10-31T09:58:39;7.60;;;4.20;;
8337;SDS011;4206;48.634;9.516;2022-10-31T10:07:22;10.90;;;4.23;;
8337;SDS011;4206;48.634;9.516;2022-10-31T10:09:55;9.40;;;4.33;;
8337;SDS011;4206;48.634;9.516;2022-10-31T10:26:17;16.67;;;5.20;;
8337;SDS011;4206;48.634;9.516;2022-10-31T10:28:45;8.40;;;4.43;;
8337;SDS011;4206;48.634;9.516;2022-10-31T10:31:18;14.10;;;4.63;;
8337;SDS011;4206;48.634;9.516;2022-10-31T10:39:21;10.40;;;4.37;;
8337;SDS011;4206;48.634;9.516;2022-10-31T10:41:52;7.57;;;4.30;;
8337;SDS011;4206;48.634;9.516;2022-10-31T10:44:33;9.97;;;4.07;;
8337;SDS011;4206;48.634;9.516;2022-10-31T10:47:20;6.10;;;4.30;;
8337;SDS011;4206;48.634;9.516;2022-10-31T10:50:01;10.70;;;4.90;;
8337;SDS011;4206;48.634;9.516;2022-10-31T10:52:35;9.17;;;4.20;;
8337;SDS011;4206;48.634;9.516;2022-10-31T11:00:17;8.70;;;4.50;;
8337;SDS011;4206;48.634;9.516;2022-10-31T11:02:45;12.20;;;5.43;;
8337;SDS011;4206;48.634;9.516;2022-10-31T11:05:15;10.97;;;4.77;;
8337;SDS011;4206;48.634;9.516;2022-10-31T11:07:49;16.23;;;5.17;;
8337;SDS011;4206;48.634;9.516;2022-10-31T11:10:15;8.33;;;4.57;;
8337;SDS011;4206;48.634;9.516;2022-10-31T11:12:43;13.03;;;4.67;;
8337;SDS011;4206;48.634;9.516;2022-10-31T11:15:22;9.13;;;4.30;;
8337;SDS011;4206;48.634;9.516;2022-10-31T11:17:51;10.83;;;4.97;;
8337;SDS011;4206;48.634;9.516;2022-10-31T11:22:46;11.67;;;5.87;;
8337;SDS011;4206;48.634;9.516;2022-10-31T11:25:20;9.27;;;4.73;;
8337;SDS011;4206;48.634;9.516;2022-10-31T11:30:31;8.33;;;4.10;;
8337;SDS011;4206;48.634;9.516;2022-10-31T11:33:11;7.87;;;4.00;;
8337;SDS011;4206;48.634;9.516;2022-10-31T11:35:43;9.63;;;4.33;;
8337;SDS011;4206;48.634;9.516;2022-10-31T11:38:12;9.23;;;3.53;;
8337;SDS011;4206;48.634;9.516;2022-10-31T11:40:50;8.90;;;3.53;;
8337;SDS011;4206;48.634;9.516;2022-10-31T11:43:18;11.93;;;3.60;;
8337;SDS011;4206;48.634;9.516;2022-10-31T11:45:44;11.87;;;3.97;;
8337;SDS011;4206;48.634;9.516;2022-10-31T11:48:18;6.40;;;4.40;;
8337;SDS011;4206;48.634;9.516;2022-10-31T11:50:51;9.67;;;4.40;;
8337;SDS011;4206;48.634;9.516;2022-10-31T11:53:22;10.43;;;4.50;;
8337;SDS011;4206;48.634;9.516;2022-10-31T11:55:59;8.60;;;3.80;;
8337;SDS011;4206;48.634;9.516;2022-10-31T11:58:29;11.90;;;4.03;;
8337;SDS011;4206;48.634;9.516;2022-10-31T12:00:55;9.43;;;3.90;;
8337;SDS011;4206;48.634;9.516;2022-10-31T12:08:34;8.17;;;4.30;;
8337;SDS011;4206;48.634;9.516;2022-10-31T12:13:37;15.40;;;4.07;;
8337;SDS011;4206;48.634;9.516;2022-10-31T12:31:52;8.60;;;4.40;;
8337;SDS011;4206;48.634;9.516;2022-10-31T12:34:45;10.20;;;3.80;;
8337;SDS011;4206;48.634;9.516;2022-10-31T12:45:10;10.97;;;4.13;;
8337;SDS011;4206;48.634;9.516;2022-10-31T13:01:20;7.43;;;4.10;;
8337;SDS011;4206;48.634;9.516;2022-10-31T13:03:50;6.63;;;3.90;;
8337;SDS011;4206;48.634;9.516;2022-10-31T13:06:20;7.73;;;3.20;;
8337;SDS011;4206;48.634;9.516;2022-10-31T13:08:51;11.40;;;4.53;;
8337;SDS011;4206;48.634;9.516;2022-10-31T13:14:02;10.93;;;4.17;;
8337;SDS011;4206;48.634;9.516;2022-10-31T13:16:33;8.10;;;3.97;;
8337;SDS011;4206;48.634;9.516;2022-10-31T13:24:37;10.10;;;4.80;;
8337;SDS011;4206;48.634;9.516;2022-10-31T13:27:13;7.73;;;4.47;;
8337;SDS011;4206;48.634;9.516;2022-10-31T13:29:48;15.53;;;4.93;;
8337;SDS011;4206;48.634;9.516;2022-10-31T13:32:20;11.13;;;4.10;;
8337;SDS011;4206;48.634;9.516;2022-10-31T13:34:48;6.50;;;4.57;;
8337;SDS011;4206;48.634;9.516;2022-10-31T13:37:23;11.30;;;6.17;;
8337;SDS011;4206;48.634;9.516;2022-10-31T13:45:18;31.53;;;17.40;;
8337;SDS011;4206;48.634;9.516;2022-10-31T13:50:54;18.97;;;10.30;;
8337;SDS011;4206;48.634;9.516;2022-10-31T13:53:22;14.43;;;7.37;;
8337;SDS011;4206;48.634;9.516;2022-10-31T13:56:03;15.33;;;6.40;;
8337;SDS011;4206;48.634;9.516;2022-10-31T13:58:38;10.73;;;6.17;;
8337;SDS011;4206;48.634;9.516;2022-10-31T14:01:20;13.33;;;7.07;;
8337;SDS011;4206;48.634;9.516;2022-10-31T14:03:55;15.63;;;7.53;;
8337;SDS011;4206;48.634;9.516;2022-10-31T14:06:22;16.50;;;9.60;;
8337;SDS011;4206;48.634;9.516;2022-10-31T14:08:59;17.80;;;9.03;;
8337;SDS011;4206;48.634;9.516;2022-10-31T14:11:25;18.13;;;8.67;;
8337;SDS011;4206;48.634;9.516;2022-10-31T14:13:52;14.23;;;7.70;;
8337;SDS011;4206;48.634;9.516;2022-10-31T14:18:56;10.47;;;5.20;;
8337;SDS011;4206;48.634;9.516;2022-10-31T14:21:29;11.77;;;4.77;;
8337;SDS011;4206;48.634;9.516;2022-10-31T14:24:14;11.20;;;5.17;;
8337;SDS011;4206;48.634;9.516;2022-10-31T14:26:50;18.33;;;4.33;;
8337;SDS011;4206;48.634;9.516;2022-10-31T14:31:50;5.73;;;3.77;;
8337;SDS011;4206;48.634;9.516;2022-10-31T14:50:51;17.23;;;7.00;;
8337;SDS011;4206;48.634;9.516;2022-10-31T14:53:23;7.20;;;3.73;;
8337;SDS011;4206;48.634;9.516;2022-10-31T14:55:54;13.87;;;4.70;;
8337;SDS011;4206;48.634;9.516;2022-10-31T14:58:22;10.80;;;4.23;;
8337;SDS011;4206;48.634;9.516;2022-10-31T15:00:57;16.20;;;5.80;;
8337;SDS011;4206;48.634;9.516;2022-10-31T15:03:25;10.10;;;4.67;;
8337;SDS011;4206;48.634;9.516;2022-10-31T15:05:56;14.37;;;5.20;;
8337;SDS011;4206;48.634;9.516;2022-10-31T15:11:09;11.23;;;4.50;;
8337;SDS011;4206;48.634;9.516;2022-10-31T15:13:41;9.77;;;5.03;;
8337;SDS011;4206;48.634;9.516;2022-10-31T15:16:08;16.90;;;5.70;;
8337;SDS011;4206;48.634;9.516;2022-10-31T15:18:36;10.37;;;4.60;;
8337;SDS011;4206;48.634;9.516;2022-10-31T15:21:10;9.60;;;5.83;;
8337;SDS011;4206;48.634;9.516;2022-10-31T15:23:39;26.77;;;10.23;;
8337;SDS011;4206;48.634;9.516;2022-10-31T15:26:05;20.00;;;8.57;;
8337;SDS011;4206;48.634;9.516;2022-10-31T15:28:31;10.53;;;4.60;;
8337;SDS011;4206;48.634;9.516;2022-10-31T15:30:58;12.00;;;5.10;;
8337;SDS011;4206;48.634;9.516;2022-10-31T15:33:26;13.33;;;6.57;;
8337;SDS011;4206;48.634;9.516;2022-10-31T15:35:54;12.60;;;5.83;;
8337;SDS011;4206;48.634;9.516;2022-10-31T15:38:23;15.03;;;8.40;;
8337;SDS011;4206;48.634;9.516;2022-10-31T15:43:34;12.10;;;5.70;;
8337;SDS011;4206;48.634;9.516;2022-10-31T15:46:02;13.80;;;6.20;;
8337;SDS011;4206;48.634;9.516;2022-10-31T15:48:29;17.47;;;6.93;;
8337;SDS011;4206;48.634;9.516;2022-10-31T15:50:57;12.70;;;6.87;;
8337;SDS011;4206;48.634;9.516;2022-10-31T15:55:52;14.53;;;5.60;;
8337;SDS011;4206;48.634;9.516;2022-10-31T15:58:21;15.23;;;5.20;;
8337;SDS011;4206;48.634;9.516;2022-10-31T16:03:30;39.43;;;19.80;;
8337;SDS011;4206;48.634;9.516;2022-10-31T16:05:58;158.17;;;88.00;;
8337;SDS011;4206;48.634;9.516;2022-10-31T16:13:36;490.83;;;305.40;;
8337;SDS011;4206;48.634;9.516;2022-10-31T16:16:13;645.23;;;422.83;;
8337;SDS011;4206;48.634;9.516;2022-10-31T16:18:41;143.87;;;77.40;;
8337;SDS011;4206;48.634;9.516;2022-10-31T16:21:07;47.00;;;24.33;;
8337;SDS011;4206;48.634;9.516;2022-10-31T16:23:34;24.90;;;13.17;;
8337;SDS011;4206;48.634;9.516;2022-10-31T16:26:06;29.90;;;14.67;;
8337;SDS011;4206;48.634;9.516;2022-10-31T16:28:33;23.20;;;10.47;;
8337;SDS011;4206;48.634;9.516;2022-10-31T16:31:00;36.13;;;22.27;;
8337;SDS011;4206;48.634;9.516;2022-10-31T16:33:34;442.80;;;287.20;;
8337;SDS011;4206;48.634;9.516;2022-10-31T16:36:28;367.37;;;217.83;;
8337;SDS011;4206;48.634;9.516;2022-10-31T16:39:04;111.10;;;53.07;;
8337;SDS011;4206;48.634;9.516;2022-10-31T16:41:29;21.13;;;12.10;;
8337;SDS011;4206;48.634;9.516;2022-10-31T16:43:59;16.87;;;8.50;;
8337;SDS011;4206;48.634;9.516;2022-10-31T16:46:27;17.73;;;10.80;;
8337;SDS011;4206;48.634;9.516;2022-10-31T16:48:53;24.00;;;14.23;;
8337;SDS011;4206;48.634;9.516;2022-10-31T16:51:19;692.37;;;484.03;;
8337;SDS011;4206;48.634;9.516;2022-10-31T16:53:45;341.63;;;205.03;;
8337;SDS011;4206;48.634;9.516;2022-10-31T16:56:14;279.50;;;154.37;;
8337;SDS011;4206;48.634;9.516;2022-10-31T16:58:43;320.53;;;164.67;;
8337;SDS011;4206;48.634;9.516;2022-10-31T17:01:09;279.10;;;135.83;;
8337;SDS011;4206;48.634;9.516;2022-10-31T17:03:37;83.60;;;45.30;;
8337;SDS011;4206;48.634;9.516;2022-10-31T17:06:03;97.73;;;48.17;;
8337;SDS011;4206;48.634;9.516;2022-10-31T17:08:29;157.93;;;76.30;;
8337;SDS011;4206;48.634;9.516;2022-10-31T17:10:55;79.40;;;36.53;;
8337;SDS011;4206;48.634;9.516;2022-10-31T17:13:23;74.47;;;35.50;;
8337;SDS011;4206;48.634;9.516;2022-10-31T17:15:52;39.60;;;26.83;;
8337;SDS011;4206;48.634;9.516;2022-10-31T17:18:20;17.83;;;8.90;;
8337;SDS011;4206;48.634;9.516;2022-10-31T17:20:45;15.10;;;7.77;;
8337;SDS011;4206;48.634;9.516;2022-10-31T17:23:12;21.00;;;12.00;;
8337;SDS011;4206;48.634;9.516;2022-10-31T17:25:39;93.93;;;65.57;;
8337;SDS011;4206;48.634;9.516;2022-10-31T17:28:05;224.40;;;156.50;;
8337;SDS011;4206;48.634;9.516;2022-10-31T17:30:31;401.33;;;286.20;;
8337;SDS011;4206;48.634;9.516;2022-10-31T17:32:58;34.33;;;22.67;;
8337;SDS011;4206;48.634;9.516;2022-10-31T17:35:23;22.13;;;14.50;;
8337;SDS011;4206;48.634;9.516;2022-10-31T17:37:49;14.80;;;9.30;;
8337;SDS011;4206;48.634;9.516;2022-10-31T17:40:16;18.00;;;9.80;;
8337;SDS011;4206;48.634;9.516;2022-10-31T17:42:47;22.93;;;12.50;;
8337;SDS011;4206;48.634;9.516;2022-10-31T17:45:14;25.03;;;12.63;;
8337;SDS011;4206;48.634;9.516;2022-10-31T17:47:40;29.43;;;14.73;;
8337;SDS011;4206;48.634;9.516;2022-10-31T17:50:05;25.20;;;12.93;;
8337;SDS011;4206;48.634;9.516;2022-10-31T17:52:31;30.53;;;11.20;;
8337;SDS011;4206;48.634;9.516;2022-10-31T17:54:57;18.63;;;7.80;;
8337;SDS011;4206;48.634;9.516;2022-10-31T17:57:23;11.87;;;7.00;;
8337;SDS011;4206;48.634;9.516;2022-10-31T17:59:48;23.10;;;8.43;;
8337;SDS011;4206;48.634;9.516;2022-10-31T18:02:14;18.83;;;9.00;;
8337;SDS011;4206;48.634;9.516;2022-10-31T18:04:40;18.17;;;8.43;;
8337;SDS011;4206;48.634;9.516;2022-10-31T18:07:06;16.40;;;7.30;;
8337;SDS011;4206;48.634;9.516;2022-10-31T18:09:32;14.50;;;7.80;;
8337;SDS011;4206;48.634;9.516;2022-10-31T18:11:58;15.07;;;8.43;;
8337;SDS011;4206;48.634;9.516;2022-10-31T18:14:24;16.33;;;8.70;;